createdAt,value
2018-11-06T00:00:06.312Z,29.07
2018-11-06T00:02:34.797Z,27.77
2018-11-06T00:05:08.532Z,30.33
2018-11-06T00:07:37.022Z,31.27
2018-11-06T00:10:05.845Z,31.40
2018-11-06T00:12:34.348Z,30.00
2018-11-06T00:15:03.114Z,28.57
2018-11-06T00:17:31.833Z,28.63
2018-11-06T00:20:00.905Z,28.20
2018-11-06T00:22:29.364Z,29.00
2018-11-06T00:24:57.846Z,31.30
2018-11-06T00:27:26.485Z,27.17
2018-11-06T00:29:54.973Z,28.17
2018-11-06T00:32:23.559Z,26.33
2018-11-06T00:34:52.266Z,25.20
2018-11-06T00:37:21.425Z,28.30
2018-11-06T00:39:50.634Z,25.30
2018-11-06T00:42:19.181Z,25.97
2018-11-06T00:44:48.535Z,27.17
2018-11-06T00:47:17.016Z,25.50
2018-11-06T00:49:45.512Z,27.77
2018-11-06T00:52:14.002Z,21.90
2018-11-06T00:54:42.516Z,21.93
2018-11-06T00:57:11.022Z,21.60
2018-11-06T00:59:39.605Z,22.30
2018-11-06T01:02:08.101Z,22.93
2018-11-06T01:04:36.584Z,23.40
2018-11-06T01:07:05.500Z,23.53
2018-11-06T01:09:34.119Z,21.77
2018-11-06T01:12:02.659Z,21.50
2018-11-06T01:14:32.211Z,19.03
2018-11-06T01:17:00.702Z,21.30
2018-11-06T01:19:29.175Z,20.83
2018-11-06T01:21:57.658Z,22.73
2018-11-06T01:24:26.110Z,21.27
2018-11-06T01:26:54.584Z,20.73
2018-11-06T01:29:23.050Z,19.73
2018-11-06T01:31:51.603Z,19.03
2018-11-06T01:34:20.100Z,18.87
2018-11-06T01:36:48.570Z,20.40
2018-11-06T01:39:17.655Z,19.27
2018-11-06T01:41:46.476Z,22.57
2018-11-06T01:44:16.566Z,18.83
2018-11-06T01:46:45.644Z,23.33
2018-11-06T01:49:14.267Z,19.13
2018-11-06T01:51:42.784Z,20.60
2018-11-06T01:54:11.272Z,18.13
2018-11-06T01:56:39.939Z,20.07
2018-11-06T01:59:08.516Z,19.47
2018-11-06T02:01:36.988Z,18.23
2018-11-06T02:04:05.609Z,21.23
2018-11-06T02:06:34.103Z,19.73
2018-11-06T02:09:02.687Z,17.57
2018-11-06T02:11:31.163Z,20.70
2018-11-06T02:13:59.640Z,18.43
2018-11-06T02:16:28.140Z,18.30
2018-11-06T02:18:56.757Z,16.43
2018-11-06T02:21:25.260Z,18.33
2018-11-06T02:23:53.723Z,20.27
2018-11-06T02:26:22.333Z,20.00
2018-11-06T02:28:50.847Z,15.10
2018-11-06T02:31:19.349Z,21.23
2018-11-06T02:33:48.339Z,17.93
2018-11-06T02:36:16.839Z,14.73
2018-11-06T02:38:45.309Z,16.47
2018-11-06T02:41:13.815Z,15.77
2018-11-06T02:43:42.323Z,17.60
2018-11-06T02:46:14.301Z,17.10
2018-11-06T02:48:42.821Z,17.43
2018-11-06T02:51:11.351Z,17.37
2018-11-06T02:53:39.961Z,21.87
2018-11-06T02:56:08.645Z,20.40
2018-11-06T02:58:37.139Z,20.33
2018-11-06T03:01:06.242Z,17.87
2018-11-06T03:03:41.060Z,18.93
2018-11-06T03:06:12.846Z,18.77
2018-11-06T03:08:41.963Z,18.93
2018-11-06T03:11:10.752Z,15.60
2018-11-06T03:13:39.259Z,16.83
2018-11-06T03:16:07.747Z,18.57
2018-11-06T03:18:36.264Z,19.13
2018-11-06T03:21:04.787Z,18.93
2018-11-06T03:23:33.948Z,16.17
2018-11-06T03:26:02.534Z,18.27
2018-11-06T03:28:31.108Z,17.53
2018-11-06T03:30:59.620Z,19.27
2018-11-06T03:33:28.079Z,17.50
2018-11-06T03:35:57.288Z,18.33
2018-11-06T03:38:25.902Z,17.83
2018-11-06T03:40:54.379Z,21.30
2018-11-06T03:43:22.875Z,20.63
2018-11-06T03:45:51.460Z,19.10
2018-11-06T03:48:19.923Z,17.73
2018-11-06T03:50:48.384Z,18.57
2018-11-06T03:53:16.888Z,18.13
2018-11-06T03:55:45.393Z,19.03
2018-11-06T03:58:14.034Z,21.37
2018-11-06T04:00:42.581Z,19.27
2018-11-06T04:03:11.526Z,16.13
2018-11-06T04:05:40.034Z,20.57
2018-11-06T04:08:08.665Z,19.90
2018-11-06T04:10:37.179Z,19.57
2018-11-06T04:13:05.668Z,21.70
2018-11-06T04:15:34.151Z,19.87
2018-11-06T04:18:02.635Z,17.97
2018-11-06T04:20:31.107Z,17.07
2018-11-06T04:22:59.621Z,18.57
2018-11-06T04:25:28.255Z,17.20
2018-11-06T04:27:57.850Z,15.43
2018-11-06T04:30:26.464Z,20.70
2018-11-06T04:32:55.514Z,16.90
2018-11-06T04:35:23.982Z,15.53
2018-11-06T04:37:52.475Z,16.20
2018-11-06T04:40:21.330Z,20.03
2018-11-06T04:42:49.808Z,17.60
2018-11-06T04:45:18.289Z,18.17
2018-11-06T04:47:46.780Z,15.20
2018-11-06T04:50:15.280Z,18.70
2018-11-06T04:52:43.745Z,15.80
2018-11-06T04:55:13.202Z,16.30
2018-11-06T04:57:41.960Z,17.67
2018-11-06T05:00:12.548Z,15.87
2018-11-06T05:02:41.519Z,17.70
2018-11-06T05:05:10.418Z,15.37
2018-11-06T05:07:39.808Z,16.47
2018-11-06T05:10:10.425Z,17.90
2018-11-06T05:12:39.454Z,16.13
2018-11-06T05:15:09.734Z,17.30
2018-11-06T05:17:38.249Z,14.87
2018-11-06T05:20:10.049Z,15.63
2018-11-06T05:22:38.540Z,13.90
2018-11-06T05:25:07.853Z,16.27
2018-11-06T05:27:36.414Z,16.97
2018-11-06T05:30:05.629Z,16.33
2018-11-06T05:32:34.107Z,15.13
2018-11-06T05:35:02.576Z,15.90
2018-11-06T05:37:31.543Z,14.50
2018-11-06T05:40:11.276Z,12.67
2018-11-06T05:42:40.004Z,13.07
2018-11-06T05:45:08.529Z,14.73
2018-11-06T05:47:37.035Z,13.63
2018-11-06T05:50:05.767Z,14.03
2018-11-06T05:52:35.111Z,14.40
2018-11-06T05:55:04.618Z,11.97
2018-11-06T05:57:33.160Z,14.97
2018-11-06T06:00:01.667Z,14.97
2018-11-06T06:02:30.199Z,17.47
2018-11-06T06:04:58.721Z,14.27
2018-11-06T06:07:27.856Z,14.70
2018-11-06T06:09:56.613Z,13.50
2018-11-06T06:12:25.134Z,12.80
2018-11-06T06:14:53.686Z,11.57
2018-11-06T06:17:22.829Z,19.23
2018-11-06T06:19:51.475Z,12.43
2018-11-06T06:22:20.137Z,13.13
2018-11-06T06:24:48.613Z,15.23
2018-11-06T06:27:17.156Z,12.97
2018-11-06T06:29:46.244Z,14.93
2018-11-06T06:32:15.130Z,11.93
2018-11-06T06:34:43.761Z,15.30
2018-11-06T06:37:12.199Z,14.53
2018-11-06T06:39:40.968Z,13.57
2018-11-06T06:42:09.445Z,11.33
2018-11-06T06:44:37.934Z,14.40
2018-11-06T06:47:06.461Z,14.33
2018-11-06T06:49:34.956Z,11.77
2018-11-06T06:52:03.684Z,11.30
2018-11-06T06:54:32.451Z,10.80
2018-11-06T06:57:00.668Z,12.00
2018-11-06T06:59:30.116Z,12.37
2018-11-06T07:01:58.600Z,13.20
2018-11-06T07:04:27.088Z,12.77
2018-11-06T07:06:55.586Z,14.17
2018-11-06T07:09:24.124Z,14.33
2018-11-06T07:11:52.611Z,12.33
2018-11-06T07:14:21.103Z,15.80
2018-11-06T07:16:49.648Z,12.70
2018-11-06T07:19:18.141Z,12.30
2018-11-06T07:21:46.595Z,13.83
2018-11-06T07:24:15.362Z,13.03
2018-11-06T07:26:43.869Z,12.50
2018-11-06T07:29:12.359Z,14.10
2018-11-06T07:31:40.847Z,16.30
2018-11-06T07:34:09.600Z,13.73
2018-11-06T07:36:38.099Z,15.93
2018-11-06T07:39:09.373Z,11.67
2018-11-06T07:41:38.331Z,14.83
2018-11-06T07:44:07.041Z,13.83
2018-11-06T07:46:35.574Z,15.77
2018-11-06T07:49:04.066Z,14.33
2018-11-06T07:51:32.550Z,16.47
2018-11-06T07:54:01.052Z,15.20
2018-11-06T07:56:29.553Z,14.57
2018-11-06T07:58:58.042Z,14.93
2018-11-06T08:01:26.507Z,13.83
2018-11-06T08:03:55.313Z,14.30
2018-11-06T08:06:23.950Z,13.73
2018-11-06T08:08:52.421Z,14.63
2018-11-06T08:11:20.910Z,15.57
2018-11-06T08:13:49.423Z,14.50
2018-11-06T08:16:17.944Z,14.00
2018-11-06T08:18:46.420Z,13.50
2018-11-06T08:21:14.926Z,14.10
2018-11-06T08:23:43.880Z,16.87
2018-11-06T08:26:12.349Z,15.43
2018-11-06T08:28:40.854Z,15.20
2018-11-06T08:31:09.551Z,13.97
2018-11-06T08:33:38.274Z,13.63
2018-11-06T08:36:06.774Z,14.60
2018-11-06T08:38:35.292Z,14.40
2018-11-06T08:41:03.836Z,12.83
2018-11-06T08:43:32.332Z,12.50
2018-11-06T08:46:00.842Z,12.47
2018-11-06T08:48:29.371Z,11.07
2018-11-06T08:50:57.884Z,11.27
2018-11-06T08:53:26.411Z,10.00
2018-11-06T08:55:54.908Z,10.47
2018-11-06T08:58:23.408Z,15.20
2018-11-06T09:00:51.902Z,12.20
2018-11-06T09:03:20.382Z,11.80
2018-11-06T09:05:48.906Z,11.83
2018-11-06T09:08:17.417Z,12.63
2018-11-06T09:10:45.923Z,11.90
2018-11-06T09:13:14.436Z,13.93
2018-11-06T09:15:43.357Z,10.77
2018-11-06T09:18:12.165Z,12.80
2018-11-06T09:20:40.653Z,11.30
2018-11-06T09:23:09.183Z,13.07
2018-11-06T09:25:37.701Z,13.77
2018-11-06T09:28:06.848Z,13.50
2018-11-06T09:30:35.543Z,13.57
2018-11-06T09:33:04.033Z,17.20
2018-11-06T09:35:32.560Z,13.17
2018-11-06T09:38:01.127Z,14.20
2018-11-06T09:42:58.179Z,14.17
2018-11-06T09:45:26.699Z,12.50
2018-11-06T09:47:55.170Z,10.43
2018-11-06T09:50:23.741Z,11.87
2018-11-06T09:52:52.659Z,13.10
2018-11-06T09:55:21.145Z,12.20
2018-11-06T09:57:49.594Z,12.07
2018-11-06T10:00:19.435Z,11.97
2018-11-06T10:02:47.830Z,12.73
2018-11-06T10:05:16.785Z,11.57
2018-11-06T10:07:45.771Z,11.20
2018-11-06T10:10:15.903Z,15.77
2018-11-06T10:12:44.949Z,12.07
2018-11-06T10:15:15.224Z,12.90
2018-11-06T10:17:45.067Z,11.53
2018-11-06T10:20:14.606Z,11.03
2018-11-06T10:22:43.316Z,8.80
2018-11-06T10:25:11.816Z,9.87
2018-11-06T10:27:40.904Z,10.10
2018-11-06T10:30:14.328Z,10.83
2018-11-06T10:32:43.105Z,10.67
2018-11-06T10:35:12.072Z,11.47
2018-11-06T10:37:40.572Z,8.83
2018-11-06T10:40:13.043Z,10.67
2018-11-06T10:42:42.003Z,11.10
2018-11-06T10:45:10.730Z,11.70
2018-11-06T10:47:39.608Z,10.60
2018-11-06T10:50:09.616Z,11.20
2018-11-06T10:52:38.380Z,10.60
2018-11-06T10:55:08.125Z,8.50
2018-11-06T10:57:38.047Z,9.87
2018-11-06T11:00:13.641Z,10.07
2018-11-06T11:02:47.357Z,11.43
2018-11-06T11:05:15.881Z,8.57
2018-11-06T11:07:44.457Z,6.27
2018-11-06T11:10:13.089Z,8.03
2018-11-06T11:12:42.201Z,6.30
2018-11-06T11:15:10.651Z,6.90
2018-11-06T11:17:39.822Z,5.90
2018-11-06T11:20:10.420Z,6.20
2018-11-06T11:22:39.442Z,7.60
2018-11-06T11:25:09.552Z,9.50
2018-11-06T11:27:38.149Z,6.23
2018-11-06T11:30:08.501Z,6.60
2018-11-06T11:32:37.209Z,4.97
2018-11-06T11:35:06.687Z,5.60
2018-11-06T11:37:35.459Z,6.90
2018-11-06T11:40:04.351Z,6.37
2018-11-06T11:42:33.361Z,6.50
2018-11-06T11:45:01.911Z,5.40
2018-11-06T11:47:30.427Z,6.23
2018-11-06T11:49:59.033Z,5.30
2018-11-06T11:52:27.643Z,9.53
2018-11-06T11:54:56.131Z,5.43
2018-11-06T11:57:24.748Z,5.30
2018-11-06T11:59:53.318Z,4.53
2018-11-06T12:02:21.871Z,5.63
2018-11-06T12:04:50.468Z,5.63
2018-11-06T12:07:19.001Z,5.37
2018-11-06T12:09:47.659Z,5.20
2018-11-06T12:12:16.211Z,4.57
2018-11-06T12:14:45.105Z,3.97
2018-11-06T12:17:13.633Z,3.80
2018-11-06T12:19:42.118Z,5.87
2018-11-06T12:22:10.614Z,6.13
2018-11-06T12:24:39.290Z,3.90
2018-11-06T12:27:07.810Z,3.00
2018-11-06T12:29:36.309Z,4.03
2018-11-06T12:32:04.836Z,4.97
2018-11-06T12:34:33.454Z,3.33
2018-11-06T12:37:01.980Z,4.03
2018-11-06T12:39:30.627Z,3.47
2018-11-06T12:41:59.168Z,4.37
2018-11-06T12:44:27.636Z,5.33
2018-11-06T12:46:56.476Z,4.30
2018-11-06T12:49:24.980Z,5.33
2018-11-06T12:51:53.915Z,5.17
2018-11-06T12:54:22.416Z,4.60
2018-11-06T12:56:50.948Z,3.80
2018-11-06T12:59:19.456Z,3.77
2018-11-06T13:01:48.115Z,3.07
2018-11-06T13:04:16.648Z,2.43
2018-11-06T13:06:45.216Z,3.23
2018-11-06T13:09:13.733Z,5.30
2018-11-06T13:11:42.825Z,3.77
2018-11-06T13:14:11.395Z,6.37
2018-11-06T13:16:40.256Z,3.27
2018-11-06T13:19:08.847Z,3.63
2018-11-06T13:21:37.336Z,5.80
2018-11-06T13:24:06.049Z,2.80
2018-11-06T13:26:34.813Z,3.23
2018-11-06T13:29:03.203Z,6.63
2018-11-06T13:31:31.753Z,3.53
2018-11-06T13:34:00.239Z,3.50
2018-11-06T13:36:28.760Z,3.80
2018-11-06T13:38:57.248Z,3.53
2018-11-06T13:41:25.771Z,4.63
2018-11-06T13:43:54.458Z,4.27
2018-11-06T13:46:22.790Z,5.07
2018-11-06T13:48:51.281Z,4.83
2018-11-06T13:51:19.792Z,3.33
2018-11-06T13:53:48.290Z,3.67
2018-11-06T13:56:17.007Z,5.50
2018-11-06T13:58:45.746Z,3.33
2018-11-06T14:01:14.268Z,3.63
2018-11-06T14:03:42.989Z,6.50
2018-11-06T14:06:11.511Z,3.13
2018-11-06T14:08:40.016Z,4.20
2018-11-06T14:11:08.470Z,4.97
2018-11-06T14:13:36.982Z,3.90
2018-11-06T14:16:05.994Z,5.73
2018-11-06T14:18:35.056Z,4.20
2018-11-06T14:21:03.616Z,11.23
2018-11-06T14:23:32.100Z,5.40
2018-11-06T14:26:00.752Z,4.03
2018-11-06T14:28:29.416Z,4.47
2018-11-06T14:30:58.305Z,3.53
2018-11-06T14:33:26.910Z,3.87
2018-11-06T14:35:55.517Z,4.53
2018-11-06T14:38:23.869Z,5.27
2018-11-06T14:40:52.366Z,6.57
2018-11-06T14:43:20.851Z,4.80
2018-11-06T14:45:49.701Z,5.40
2018-11-06T14:48:18.272Z,3.80
2018-11-06T14:50:46.816Z,4.47
2018-11-06T14:53:15.324Z,2.87
2018-11-06T14:55:43.968Z,4.83
2018-11-06T14:58:12.483Z,5.03
2018-11-06T15:00:41.153Z,6.37
2018-11-06T15:03:09.634Z,5.63
2018-11-06T15:05:38.296Z,4.33
2018-11-06T15:08:06.912Z,3.57
2018-11-06T15:10:35.415Z,4.30
2018-11-06T15:13:04.003Z,3.20
2018-11-06T15:15:32.536Z,6.27
2018-11-06T15:18:01.138Z,3.87
2018-11-06T15:20:29.646Z,4.90
2018-11-06T15:22:58.601Z,5.03
2018-11-06T15:25:27.207Z,5.33
2018-11-06T15:27:55.672Z,4.80
2018-11-06T15:30:24.174Z,4.00
2018-11-06T15:32:52.691Z,4.17
2018-11-06T15:35:21.947Z,3.67
2018-11-06T15:37:50.461Z,5.83
2018-11-06T15:40:20.196Z,4.03
2018-11-06T15:42:48.732Z,3.50
2018-11-06T15:45:18.581Z,3.47
2018-11-06T15:47:47.485Z,4.97
2018-11-06T15:50:17.368Z,6.23
2018-11-06T15:52:46.866Z,4.70
2018-11-06T15:55:15.877Z,6.00
2018-11-06T15:57:44.381Z,6.33
2018-11-06T16:00:17.911Z,6.03
2018-11-06T16:02:46.850Z,5.13
2018-11-06T16:05:15.378Z,5.27
2018-11-06T16:07:43.905Z,4.70
2018-11-06T16:10:15.943Z,5.83
2018-11-06T16:12:45.152Z,4.47
2018-11-06T16:15:13.649Z,5.27
2018-11-06T16:17:42.196Z,4.40
2018-11-06T16:20:12.637Z,4.00
2018-11-06T16:22:41.563Z,4.10
2018-11-06T16:25:12.258Z,5.53
2018-11-06T16:27:41.360Z,6.73
2018-11-06T16:30:12.241Z,5.70
2018-11-06T16:32:40.936Z,7.00
2018-11-06T16:35:11.733Z,8.20
2018-11-06T16:37:40.549Z,4.70
2018-11-06T16:40:09.692Z,9.90
2018-11-06T16:42:38.435Z,5.30
2018-11-06T16:45:08.675Z,6.97
2018-11-06T16:47:37.175Z,5.53
2018-11-06T16:50:07.231Z,8.13
2018-11-06T16:52:35.731Z,5.97
2018-11-06T16:55:04.807Z,10.60
2018-11-06T16:57:33.680Z,7.60
2018-11-06T17:00:02.931Z,7.17
2018-11-06T17:02:31.602Z,16.87
2018-11-06T17:05:00.212Z,19.97
2018-11-06T17:07:28.776Z,12.73
2018-11-06T17:09:57.379Z,7.47
2018-11-06T17:12:25.895Z,8.13
2018-11-06T17:14:54.529Z,5.40
2018-11-06T17:17:23.073Z,8.07
2018-11-06T17:19:51.562Z,6.63
2018-11-06T17:22:20.046Z,7.30
2018-11-06T17:24:48.610Z,4.87
2018-11-06T17:27:17.030Z,7.17
2018-11-06T17:29:45.647Z,7.17
2018-11-06T17:32:14.786Z,7.47
2018-11-06T17:34:44.347Z,5.07
2018-11-06T17:37:18.868Z,7.43
2018-11-06T17:39:47.610Z,6.83
2018-11-06T17:42:16.871Z,5.13
2018-11-06T17:44:46.062Z,6.50
2018-11-06T17:47:14.796Z,6.77
2018-11-06T17:49:43.643Z,8.17
2018-11-06T17:52:12.448Z,9.50
2018-11-06T17:54:40.965Z,11.77
2018-11-06T17:57:09.500Z,13.93
2018-11-06T17:59:38.146Z,12.70
2018-11-06T18:02:06.746Z,12.90
2018-11-06T18:04:35.276Z,12.30
2018-11-06T18:07:03.797Z,11.40
2018-11-06T18:09:32.296Z,12.43
2018-11-06T18:12:00.828Z,17.20
2018-11-06T18:14:29.309Z,11.30
2018-11-06T18:16:57.809Z,9.63
2018-11-06T18:19:26.433Z,10.13
2018-11-06T18:21:54.909Z,8.77
2018-11-06T18:24:23.387Z,9.17
2018-11-06T18:26:52.783Z,10.80
2018-11-06T18:29:21.315Z,8.97
2018-11-06T18:31:49.884Z,9.80
2018-11-06T18:34:18.546Z,8.87
2018-11-06T18:36:47.056Z,12.70
2018-11-06T18:39:15.552Z,14.37
2018-11-06T18:41:44.293Z,9.40
2018-11-06T18:44:12.939Z,11.47
2018-11-06T18:46:41.504Z,8.40
2018-11-06T18:49:10.035Z,9.60
2018-11-06T18:51:38.830Z,8.37
2018-11-06T18:54:07.617Z,10.97
2018-11-06T18:56:36.218Z,10.17
2018-11-06T18:59:05.133Z,7.50
2018-11-06T19:01:33.766Z,7.73
2018-11-06T19:04:02.321Z,6.13
2018-11-06T19:06:30.879Z,6.63
2018-11-06T19:08:59.438Z,5.90
2018-11-06T19:11:27.928Z,6.13
2018-11-06T19:13:56.426Z,6.07
2018-11-06T19:16:24.923Z,6.77
2018-11-06T19:18:53.757Z,5.93
2018-11-06T19:21:22.268Z,6.10
2018-11-06T19:23:50.867Z,8.67
2018-11-06T19:26:19.361Z,7.33
2018-11-06T19:28:48.002Z,7.27
2018-11-06T19:31:16.708Z,5.43
2018-11-06T19:33:45.440Z,3.90
2018-11-06T19:36:14.171Z,4.50
2018-11-06T19:38:42.678Z,6.27
2018-11-06T19:41:11.185Z,5.13
2018-11-06T19:43:39.731Z,5.87
2018-11-06T19:46:08.430Z,5.33
2018-11-06T19:48:37.163Z,7.40
2018-11-06T19:51:05.799Z,2.87
2018-11-06T19:53:34.618Z,3.53
2018-11-06T19:56:03.177Z,3.07
2018-11-06T19:58:31.669Z,2.83
2018-11-06T20:01:00.239Z,3.67
2018-11-06T20:03:28.870Z,4.13
2018-11-06T20:05:57.579Z,5.63
2018-11-06T20:08:27.071Z,7.27
2018-11-06T20:10:55.791Z,2.57
2018-11-06T20:13:24.797Z,3.17
2018-11-06T20:15:53.612Z,3.43
2018-11-06T20:18:22.217Z,3.00
2018-11-06T20:20:50.733Z,3.23
2018-11-06T20:23:19.454Z,2.47
2018-11-06T20:25:48.149Z,3.80
2018-11-06T20:28:17.932Z,2.93
2018-11-06T20:30:46.565Z,2.67
2018-11-06T20:33:16.177Z,2.13
2018-11-06T20:35:45.602Z,4.90
2018-11-06T20:38:14.202Z,2.20
2018-11-06T20:40:43.215Z,2.63
2018-11-06T20:43:12.176Z,3.37
2018-11-06T20:45:41.280Z,1.90
2018-11-06T20:48:09.792Z,1.87
2018-11-06T20:50:38.726Z,2.63
2018-11-06T20:53:07.428Z,2.63
2018-11-06T20:55:37.050Z,1.77
2018-11-06T20:58:05.647Z,2.80
2018-11-06T21:00:34.578Z,1.80
2018-11-06T21:03:03.835Z,3.07
2018-11-06T21:05:32.872Z,1.80
2018-11-06T21:08:02.220Z,2.17
2018-11-06T21:10:31.970Z,2.47
2018-11-06T21:13:01.350Z,2.67
2018-11-06T21:15:29.858Z,2.57
2018-11-06T21:17:58.742Z,2.30
2018-11-06T21:20:27.849Z,1.97
2018-11-06T21:22:56.342Z,2.20
2018-11-06T21:25:24.936Z,2.23
2018-11-06T21:27:53.548Z,2.87
2018-11-06T21:30:22.396Z,2.07
2018-11-06T21:32:52.730Z,4.10
2018-11-06T21:35:22.099Z,2.77
2018-11-06T21:37:51.739Z,2.40
2018-11-06T21:40:21.821Z,2.67
2018-11-06T21:42:50.951Z,4.33
2018-11-06T21:45:20.497Z,5.67
2018-11-06T21:47:50.368Z,3.70
2018-11-06T21:50:19.563Z,4.23
2018-11-06T21:52:48.651Z,2.47
2018-11-06T21:55:19.290Z,4.27
2018-11-06T21:57:47.820Z,4.20
2018-11-06T22:00:18.591Z,3.10
2018-11-06T22:02:47.937Z,3.47
2018-11-06T22:05:18.441Z,4.27
2018-11-06T22:07:47.691Z,5.40
2018-11-06T22:10:17.964Z,3.97
2018-11-06T22:12:47.284Z,3.03
2018-11-06T22:15:17.084Z,4.30
2018-11-06T22:17:46.327Z,3.10
2018-11-06T22:20:16.279Z,3.10
2018-11-06T22:22:45.376Z,2.47
2018-11-06T22:25:14.280Z,4.23
2018-11-06T22:27:44.141Z,3.23
2018-11-06T22:30:14.995Z,2.63
2018-11-06T22:32:44.587Z,2.93
2018-11-06T22:35:14.849Z,3.70
2018-11-06T22:37:44.152Z,3.93
2018-11-06T22:40:14.608Z,3.67
2018-11-06T22:42:43.788Z,2.80
2018-11-06T22:45:14.168Z,3.80
2018-11-06T22:47:43.918Z,2.13
2018-11-06T22:50:13.932Z,3.43
2018-11-06T22:52:43.518Z,3.40
2018-11-06T22:55:13.038Z,1.73
2018-11-06T22:57:42.053Z,2.77
2018-11-06T23:00:15.592Z,3.23
2018-11-06T23:02:44.867Z,2.00
2018-11-06T23:05:14.937Z,3.27
2018-11-06T23:07:49.198Z,2.13
2018-11-06T23:10:18.254Z,4.37
2018-11-06T23:12:47.178Z,3.13
2018-11-06T23:15:16.056Z,1.70
2018-11-06T23:17:45.465Z,2.67
2018-11-06T23:20:14.495Z,2.63
2018-11-06T23:22:43.618Z,4.37
2018-11-06T23:25:12.587Z,2.30
2018-11-06T23:27:41.317Z,2.33
2018-11-06T23:30:12.165Z,4.87
2018-11-06T23:32:41.321Z,3.00
2018-11-06T23:35:10.353Z,5.30
2018-11-06T23:37:40.093Z,3.60
2018-11-06T23:40:10.272Z,3.70
2018-11-06T23:42:39.937Z,2.90
2018-11-06T23:45:09.355Z,3.70
2018-11-06T23:47:38.213Z,5.27
2018-11-06T23:50:08.469Z,3.30
2018-11-06T23:52:37.703Z,3.77
2018-11-06T23:55:06.630Z,5.33
2018-11-06T23:57:35.267Z,4.83
